createdAt,value
2019-01-29T00:03:22.699Z,0.50
2019-01-29T00:06:05.026Z,0.50
2019-01-29T00:08:46.705Z,0.40
2019-01-29T00:11:29.174Z,0.30
2019-01-29T00:14:13.041Z,0.40
2019-01-29T00:16:55.237Z,0.30
2019-01-29T00:19:37.269Z,0.30
2019-01-29T00:22:07.792Z,0.40
2019-01-29T00:24:50.059Z,0.40
2019-01-29T00:27:32.236Z,0.40
2019-01-29T00:30:14.377Z,0.40
2019-01-29T00:32:56.744Z,0.40
2019-01-29T00:35:38.708Z,0.20
2019-01-29T00:41:01.393Z,0.20
2019-01-29T00:43:43.492Z,0.10
2019-01-29T00:46:25.972Z,0.10
2019-01-29T00:49:07.758Z,0.00
2019-01-29T00:51:49.609Z,0.00
2019-01-29T00:54:32.040Z,0.00
2019-01-29T00:57:14.315Z,0.00
2019-01-29T00:59:56.343Z,0.10
2019-01-29T01:02:38.864Z,0.10
2019-01-29T01:05:20.578Z,0.10
2019-01-29T01:08:02.928Z,0.20
2019-01-29T01:10:44.760Z,0.20
2019-01-29T01:13:26.673Z,0.10
2019-01-29T01:16:08.786Z,0.10
2019-01-29T01:18:52.952Z,0.10
2019-01-29T01:21:35.106Z,0.00
2019-01-29T01:24:17.125Z,0.00
2019-01-29T01:26:59.415Z,0.00
2019-01-29T01:29:41.407Z,-0.10
2019-01-29T01:32:23.648Z,-0.20
2019-01-29T01:35:05.617Z,-0.30
2019-01-29T01:37:47.700Z,-0.40
2019-01-29T01:40:29.928Z,-0.50
2019-01-29T01:43:11.918Z,-0.70
2019-01-29T01:45:53.994Z,-0.80
2019-01-29T01:48:35.922Z,-1.00
2019-01-29T01:51:17.936Z,-1.10
2019-01-29T01:56:58.894Z,-1.30
2019-01-29T01:59:41.411Z,-1.30
2019-01-29T02:02:23.897Z,-1.30
2019-01-29T02:05:06.107Z,-1.30
2019-01-29T02:07:48.366Z,-1.40
2019-01-29T02:10:30.946Z,-1.30
2019-01-29T02:13:13.046Z,-1.20
2019-01-29T02:15:55.340Z,-1.10
2019-01-29T02:18:37.505Z,-1.00
2019-01-29T02:21:19.541Z,-0.90
2019-01-29T02:24:01.613Z,-0.80
2019-01-29T02:26:44.908Z,-0.70
2019-01-29T02:32:26.375Z,-0.70
2019-01-29T02:35:08.370Z,-0.60
2019-01-29T02:37:50.473Z,-0.70
2019-01-29T02:40:32.535Z,-0.70
2019-01-29T02:43:14.344Z,-0.70
2019-01-29T02:45:56.501Z,-0.80
2019-01-29T02:48:38.708Z,-0.90
2019-01-29T02:51:20.741Z,-1.10
2019-01-29T02:54:03.290Z,-1.30
2019-01-29T02:56:45.390Z,-1.40
2019-01-29T02:59:27.707Z,-1.50
2019-01-29T03:05:06.279Z,-1.60
2019-01-29T03:07:48.381Z,-1.70
2019-01-29T03:10:30.603Z,-1.80
2019-01-29T03:13:12.659Z,-1.80
2019-01-29T03:15:55.604Z,-1.90
2019-01-29T03:18:36.211Z,-1.90
2019-01-29T03:21:18.183Z,-2.00
2019-01-29T03:24:00.581Z,-2.10
2019-01-29T03:26:42.653Z,-2.10
2019-01-29T03:29:24.576Z,-2.20
2019-01-29T03:32:06.286Z,-2.30
2019-01-29T03:34:48.336Z,-2.40
2019-01-29T03:37:30.499Z,-2.40
2019-01-29T03:42:52.177Z,-2.50
2019-01-29T03:45:34.380Z,-2.50
2019-01-29T03:48:16.451Z,-2.50
2019-01-29T03:53:54.779Z,-2.60
2019-01-29T03:56:25.147Z,-2.80
2019-01-29T03:59:14.512Z,-2.90
2019-01-29T04:01:56.462Z,-3.00
2019-01-29T04:04:36.968Z,-3.00
2019-01-29T04:07:19.028Z,-3.10
2019-01-29T04:10:00.683Z,-3.10
2019-01-29T04:12:42.370Z,-3.20
2019-01-29T04:15:24.268Z,-3.30
2019-01-29T04:18:06.433Z,-3.20
2019-01-29T04:20:48.791Z,-3.20
2019-01-29T04:23:30.921Z,-3.30
2019-01-29T04:26:13.115Z,-3.30
2019-01-29T04:28:55.085Z,-3.30
2019-01-29T04:31:37.389Z,-3.40
2019-01-29T04:34:19.388Z,-3.50
2019-01-29T04:37:01.251Z,-3.60
2019-01-29T04:39:44.325Z,-3.70
2019-01-29T04:42:26.475Z,-3.70
2019-01-29T04:45:08.496Z,-3.80
2019-01-29T04:47:50.647Z,-3.60
2019-01-29T04:50:32.296Z,-3.80
2019-01-29T04:53:14.377Z,-3.90
2019-01-29T04:55:56.972Z,-4.00
2019-01-29T04:58:39.033Z,-4.00
2019-01-29T05:01:21.106Z,-4.00
2019-01-29T05:04:03.480Z,-3.90
2019-01-29T05:06:45.601Z,-4.10
2019-01-29T05:09:27.609Z,-4.20
2019-01-29T05:12:09.554Z,-4.20
2019-01-29T05:14:51.651Z,-4.30
2019-01-29T05:17:33.883Z,-4.40
2019-01-29T05:20:16.061Z,-4.50
2019-01-29T05:22:57.735Z,-4.50
2019-01-29T05:25:39.252Z,-4.60
2019-01-29T05:28:22.665Z,-4.80
2019-01-29T05:31:05.368Z,-4.90
2019-01-29T05:33:47.158Z,-4.90
2019-01-29T05:36:29.037Z,-4.90
2019-01-29T05:39:11.323Z,-5.00
2019-01-29T05:41:52.965Z,-5.10
2019-01-29T05:44:34.896Z,-5.10
2019-01-29T05:47:17.337Z,-5.20
2019-01-29T05:49:59.439Z,-5.00
2019-01-29T05:52:42.076Z,-5.10
2019-01-29T05:55:23.864Z,-5.20
2019-01-29T05:58:06.068Z,-5.20
2019-01-29T06:00:48.284Z,-5.20
2019-01-29T06:03:30.531Z,-5.30
2019-01-29T06:06:12.805Z,-5.50
2019-01-29T06:08:54.513Z,-5.60
2019-01-29T06:11:37.341Z,-5.60
2019-01-29T06:14:19.420Z,-5.60
2019-01-29T06:17:01.231Z,-5.60
2019-01-29T06:19:31.657Z,-5.60
2019-01-29T06:22:21.088Z,-5.70
2019-01-29T06:25:03.815Z,-5.80
2019-01-29T06:27:46.115Z,-5.80
2019-01-29T06:30:28.498Z,-5.90
2019-01-29T06:33:11.048Z,-6.00
2019-01-29T06:35:53.239Z,-6.10
2019-01-29T06:38:35.245Z,-6.20
2019-01-29T06:41:17.655Z,-6.10
2019-01-29T06:44:00.861Z,-6.10
2019-01-29T06:46:42.694Z,-6.10
2019-01-29T06:49:24.812Z,-6.00
2019-01-29T06:52:06.860Z,-6.00
2019-01-29T06:54:37.164Z,-6.00
2019-01-29T06:57:19.323Z,-6.00
2019-01-29T07:00:01.569Z,-5.90
2019-01-29T07:02:44.915Z,-6.00
2019-01-29T07:05:27.331Z,-5.80
2019-01-29T07:08:09.232Z,-5.90
2019-01-29T07:10:52.132Z,-5.80
2019-01-29T07:13:22.743Z,-5.80
2019-01-29T07:16:31.115Z,-5.90
2019-01-29T07:19:20.519Z,-5.90
2019-01-29T07:22:02.795Z,-6.00
2019-01-29T07:24:44.979Z,-6.10
2019-01-29T07:27:15.443Z,-6.00
2019-01-29T07:29:57.343Z,-6.00
2019-01-29T07:32:39.619Z,-6.00
2019-01-29T07:35:21.987Z,-6.10
2019-01-29T07:38:04.273Z,-6.10
2019-01-29T07:40:35.583Z,-6.10
2019-01-29T07:43:25.042Z,-6.20
2019-01-29T07:46:07.494Z,-6.20
2019-01-29T07:48:49.426Z,-6.20
2019-01-29T07:51:31.529Z,-6.10
2019-01-29T07:54:13.681Z,-6.00
2019-01-29T07:56:56.128Z,-6.00
2019-01-29T07:59:37.997Z,-6.10
2019-01-29T08:02:20.065Z,-6.00
2019-01-29T08:05:02.300Z,-6.00
2019-01-29T08:07:44.186Z,-5.90
2019-01-29T08:10:26.583Z,-5.90
2019-01-29T08:13:08.691Z,-5.80
2019-01-29T08:15:50.865Z,-5.80
2019-01-29T08:18:33.121Z,-5.80
2019-01-29T08:21:15.363Z,-5.80
2019-01-29T08:23:56.988Z,-5.80
2019-01-29T08:26:38.844Z,-5.70
2019-01-29T08:29:21.058Z,-5.70
2019-01-29T08:32:03.210Z,-5.70
2019-01-29T08:34:45.346Z,-5.70
2019-01-29T08:37:27.383Z,-5.70
2019-01-29T08:40:09.128Z,-5.70
2019-01-29T08:45:32.103Z,-5.70
2019-01-29T08:48:14.135Z,-5.60
2019-01-29T08:50:56.916Z,-5.40
2019-01-29T08:53:39.010Z,-5.20
2019-01-29T08:56:21.143Z,-5.00
2019-01-29T08:59:03.168Z,-5.00
2019-01-29T09:01:45.237Z,-4.80
2019-01-29T09:04:27.441Z,-4.80
2019-01-29T09:07:10.302Z,-4.80
2019-01-29T09:09:52.383Z,-4.80
2019-01-29T09:12:34.763Z,-4.80
2019-01-29T09:15:16.966Z,-4.70
2019-01-29T09:17:59.531Z,-4.50
2019-01-29T09:20:41.747Z,-4.50
2019-01-29T09:23:12.225Z,-4.30
2019-01-29T09:26:01.625Z,-4.20
2019-01-29T09:28:43.867Z,-4.20
2019-01-29T09:31:26.379Z,-4.00
2019-01-29T09:34:08.724Z,-3.90
2019-01-29T09:36:53.094Z,-3.80
2019-01-29T09:39:35.568Z,-3.70
2019-01-29T09:42:18.307Z,-3.60
2019-01-29T09:48:03.151Z,-3.50
2019-01-29T09:50:45.502Z,-3.40
2019-01-29T09:53:27.884Z,-3.20
2019-01-29T09:56:10.173Z,-3.10
2019-01-29T09:58:52.262Z,-3.10
2019-01-29T10:01:34.643Z,-3.00
2019-01-29T10:04:16.596Z,-2.80
2019-01-29T10:06:59.105Z,-2.70
2019-01-29T10:09:40.795Z,-2.80
2019-01-29T10:17:44.520Z,-2.50
2019-01-29T10:20:26.963Z,-2.50
2019-01-29T10:23:08.664Z,-2.50
2019-01-29T10:25:51.979Z,-2.40
2019-01-29T10:28:34.009Z,-2.30
2019-01-29T10:31:15.823Z,-2.40
2019-01-29T10:33:58.817Z,-2.40
2019-01-29T10:36:36.506Z,-2.30
2019-01-29T10:39:19.051Z,-2.20
2019-01-29T10:42:01.521Z,-2.20
2019-01-29T10:44:43.769Z,-2.10
2019-01-29T10:47:25.983Z,-2.10
2019-01-29T10:50:08.320Z,-2.00
2019-01-29T10:52:50.620Z,-1.90
2019-01-29T10:55:24.148Z,-1.80
2019-01-29T10:58:06.535Z,-1.80
2019-01-29T11:00:48.528Z,-1.70
2019-01-29T11:03:31.286Z,-1.80
2019-01-29T11:06:13.444Z,-1.80
2019-01-29T11:08:55.572Z,-1.80
2019-01-29T11:11:37.932Z,-1.60
2019-01-29T11:14:21.276Z,-1.60
2019-01-29T11:17:03.759Z,-1.40
2019-01-29T11:19:46.085Z,-1.40
2019-01-29T11:22:28.669Z,-1.30
2019-01-29T11:25:11.131Z,-1.30
2019-01-29T11:27:53.739Z,-1.20
2019-01-29T11:30:36.327Z,-1.00
2019-01-29T11:33:18.283Z,-1.00
2019-01-29T11:36:00.673Z,-0.90
2019-01-29T11:38:42.716Z,-0.70
2019-01-29T11:41:24.970Z,-0.70
2019-01-29T11:44:07.241Z,-0.70
2019-01-29T11:46:49.728Z,-0.70
2019-01-29T11:49:31.936Z,-0.50
2019-01-29T11:52:13.974Z,-0.50
2019-01-29T11:54:56.456Z,-0.40
2019-01-29T11:57:26.991Z,-0.30
2019-01-29T12:03:30.645Z,-0.30
2019-01-29T12:06:02.051Z,-0.20
2019-01-29T12:08:44.867Z,-0.40
2019-01-29T12:11:26.779Z,-0.40
2019-01-29T12:14:10.913Z,-0.30
2019-01-29T12:16:54.372Z,-0.40
2019-01-29T12:19:36.271Z,-0.50
2019-01-29T12:22:18.376Z,-0.50
2019-01-29T12:25:00.628Z,-0.30
2019-01-29T12:27:44.763Z,-0.10
2019-01-29T12:30:27.186Z,0.60
2019-01-29T12:33:10.456Z,3.10
2019-01-29T12:35:52.472Z,3.50
2019-01-29T12:38:34.692Z,3.20
2019-01-29T12:41:16.669Z,2.70
2019-01-29T12:43:58.737Z,2.40
2019-01-29T12:46:40.816Z,2.20
2019-01-29T12:49:22.836Z,1.60
2019-01-29T12:52:26.676Z,1.70
2019-01-29T12:55:08.656Z,2.80
2019-01-29T12:57:51.035Z,3.50
2019-01-29T13:00:54.016Z,3.40
2019-01-29T13:03:35.987Z,3.30
2019-01-29T13:06:18.121Z,2.80
2019-01-29T13:08:59.840Z,2.50
2019-01-29T13:11:41.876Z,2.40
2019-01-29T13:14:24.008Z,2.10
2019-01-29T13:17:06.326Z,2.10
2019-01-29T13:19:48.545Z,1.90
2019-01-29T13:22:31.052Z,1.80
2019-01-29T13:25:13.364Z,1.60
2019-01-29T13:27:55.307Z,1.10
2019-01-29T13:30:38.643Z,0.50
2019-01-29T13:33:21.039Z,-0.10
2019-01-29T13:36:03.286Z,-0.60
2019-01-29T13:38:45.629Z,-0.90
2019-01-29T13:41:27.691Z,-1.20
2019-01-29T13:44:11.521Z,-1.40
2019-01-29T13:46:55.736Z,-1.40
2019-01-29T13:49:37.850Z,-1.50
2019-01-29T13:52:20.175Z,-1.70
2019-01-29T13:55:01.952Z,-1.80
2019-01-29T13:57:44.185Z,-1.90
2019-01-29T14:00:26.628Z,-2.00
2019-01-29T14:03:09.722Z,-2.00
2019-01-29T14:05:52.054Z,-2.20
2019-01-29T14:08:34.276Z,-2.50
2019-01-29T14:11:17.663Z,-2.60
2019-01-29T14:13:59.820Z,-2.70
2019-01-29T14:16:42.056Z,-2.80
2019-01-29T14:19:24.018Z,-2.90
2019-01-29T14:22:06.008Z,-2.90
2019-01-29T14:24:48.460Z,-3.10
2019-01-29T14:27:33.177Z,-3.20
2019-01-29T14:30:14.853Z,-3.10
2019-01-29T14:32:56.493Z,-3.40
2019-01-29T14:35:38.956Z,-3.40
2019-01-29T14:38:21.253Z,-3.40
2019-01-29T14:41:03.877Z,-3.60
2019-01-29T14:43:46.358Z,-3.40
2019-01-29T14:46:28.508Z,-3.40
2019-01-29T14:49:10.532Z,-3.60
2019-01-29T14:51:52.937Z,-3.60
2019-01-29T14:54:35.201Z,-3.60
2019-01-29T14:57:17.141Z,-3.70
2019-01-29T14:59:59.363Z,-3.60
2019-01-29T15:02:29.755Z,-3.70
2019-01-29T15:05:19.137Z,-3.80
2019-01-29T15:08:00.829Z,-3.80
2019-01-29T15:10:42.897Z,-4.00
2019-01-29T15:13:24.884Z,-4.10
2019-01-29T15:16:25.869Z,-4.20
2019-01-29T15:19:14.092Z,-4.30
2019-01-29T15:21:56.656Z,-4.40
2019-01-29T15:24:39.029Z,-4.40
2019-01-29T15:27:21.178Z,-4.50
2019-01-29T15:30:03.713Z,-4.50
2019-01-29T15:32:46.319Z,-4.50
2019-01-29T15:35:28.303Z,-4.60
2019-01-29T15:38:10.598Z,-4.80
2019-01-29T15:40:52.928Z,-4.90
2019-01-29T15:43:35.784Z,-5.00
2019-01-29T15:46:18.018Z,-5.10
2019-01-29T15:49:00.186Z,-5.20
2019-01-29T15:51:42.612Z,-5.30
2019-01-29T15:54:24.869Z,-5.40
2019-01-29T15:57:14.072Z,-5.50
2019-01-29T15:59:43.109Z,-5.30
2019-01-29T16:02:28.917Z,-5.20
2019-01-29T16:05:11.244Z,-5.30
2019-01-29T16:07:53.440Z,-5.30
2019-01-29T16:10:39.721Z,-5.40
2019-01-29T16:13:17.940Z,-5.40
2019-01-29T16:16:00.200Z,-5.50
2019-01-29T16:18:42.491Z,-5.50
2019-01-29T16:21:25.007Z,-5.60
2019-01-29T16:24:07.206Z,-5.60
2019-01-29T16:26:49.791Z,-5.80
2019-01-29T16:29:32.222Z,-5.90
2019-01-29T16:32:14.519Z,-5.70
2019-01-29T16:34:56.580Z,-5.80
2019-01-29T16:37:39.070Z,-5.80
2019-01-29T16:46:04.345Z,-5.80
2019-01-29T16:48:46.344Z,-5.90
2019-01-29T16:51:28.271Z,-5.90
2019-01-29T16:54:10.424Z,-6.00
2019-01-29T16:56:52.233Z,-6.10
2019-01-29T16:59:34.252Z,-6.10
2019-01-29T17:02:16.283Z,-6.10
2019-01-29T17:04:58.615Z,-6.20
2019-01-29T17:07:40.850Z,-6.20
2019-01-29T17:10:23.299Z,-6.20
2019-01-29T17:13:05.631Z,-6.00
2019-01-29T17:15:47.867Z,-6.10
2019-01-29T17:18:30.172Z,-6.20
2019-01-29T17:21:12.525Z,-6.20
2019-01-29T17:23:54.269Z,-6.30
2019-01-29T17:26:36.463Z,-6.40
2019-01-29T17:29:18.707Z,-6.40
2019-01-29T17:32:00.948Z,-6.40
2019-01-29T17:34:45.064Z,-6.40
2019-01-29T17:37:27.044Z,-6.40
2019-01-29T17:40:09.062Z,-6.40
2019-01-29T17:42:51.424Z,-6.40
2019-01-29T17:45:33.308Z,-6.50
2019-01-29T17:48:16.167Z,-6.50
2019-01-29T17:50:58.308Z,-6.60
2019-01-29T17:53:40.560Z,-6.60
2019-01-29T17:56:23.108Z,-6.60
2019-01-29T17:59:05.511Z,-6.60
2019-01-29T18:01:49.607Z,-6.60
2019-01-29T18:04:32.203Z,-6.60
2019-01-29T18:07:14.939Z,-6.70
2019-01-29T18:09:56.918Z,-6.70
2019-01-29T18:12:41.475Z,-6.60
2019-01-29T18:15:35.627Z,-6.60
2019-01-29T18:18:18.019Z,-6.70
2019-01-29T18:21:00.350Z,-6.70
2019-01-29T18:23:30.731Z,-6.70
2019-01-29T18:26:12.760Z,-6.70
2019-01-29T18:28:54.928Z,-6.70
2019-01-29T18:31:37.218Z,-6.70
2019-01-29T18:34:19.446Z,-6.70
2019-01-29T18:37:01.864Z,-6.60
2019-01-29T18:39:47.704Z,-6.50
2019-01-29T18:42:31.853Z,-6.50
2019-01-29T18:45:14.024Z,-6.50
2019-01-29T18:47:56.408Z,-6.50
2019-01-29T18:50:38.648Z,-6.60
2019-01-29T18:53:20.852Z,-6.60
2019-01-29T18:56:03.159Z,-6.60
2019-01-29T18:58:45.915Z,-6.60
2019-01-29T19:01:28.150Z,-6.60
2019-01-29T19:04:10.476Z,-6.50
2019-01-29T19:06:52.863Z,-6.60
2019-01-29T19:09:35.225Z,-6.50
2019-01-29T19:12:17.479Z,-6.40
2019-01-29T19:15:00.720Z,-6.40
2019-01-29T19:17:42.668Z,-6.30
2019-01-29T19:20:25.076Z,-6.10
2019-01-29T19:23:07.036Z,-5.90
2019-01-29T19:25:49.169Z,-5.80
2019-01-29T19:28:31.238Z,-5.70
2019-01-29T19:31:13.732Z,-5.70
2019-01-29T19:33:55.736Z,-5.70
2019-01-29T19:36:38.272Z,-5.80
2019-01-29T19:39:21.398Z,-5.90
2019-01-29T19:42:03.333Z,-6.10
2019-01-29T19:44:45.355Z,-6.10
2019-01-29T19:47:27.584Z,-6.10
2019-01-29T19:50:09.557Z,-5.90
2019-01-29T19:52:51.954Z,-5.80
2019-01-29T19:55:33.835Z,-5.60
2019-01-29T19:58:15.981Z,-5.50
2019-01-29T20:00:58.274Z,-5.40
2019-01-29T20:03:40.031Z,-5.00
2019-01-29T20:06:22.204Z,-5.00
2019-01-29T20:09:05.948Z,-4.90
2019-01-29T20:11:36.388Z,-4.70
2019-01-29T20:14:18.705Z,-4.60
2019-01-29T20:17:01.194Z,-4.50
2019-01-29T20:19:44.393Z,-4.40
2019-01-29T20:22:26.281Z,-4.30
2019-01-29T20:25:07.924Z,-4.20
2019-01-29T20:27:53.005Z,-4.10
2019-01-29T20:30:34.546Z,-4.10
2019-01-29T20:33:16.704Z,-4.00
2019-01-29T20:35:47.012Z,-4.00
2019-01-29T20:38:36.491Z,-3.90
2019-01-29T20:41:18.922Z,-4.00
2019-01-29T20:44:00.861Z,-3.80
2019-01-29T20:46:44.117Z,-3.80
2019-01-29T20:49:26.137Z,-3.80
2019-01-29T20:52:08.392Z,-3.60
2019-01-29T20:54:50.732Z,-3.50
2019-01-29T20:57:25.219Z,-3.40
2019-01-29T21:00:16.203Z,-3.40
2019-01-29T21:02:58.619Z,-3.30
2019-01-29T21:05:40.624Z,-3.40
2019-01-29T21:08:22.267Z,-3.40
2019-01-29T21:11:04.332Z,-3.30
2019-01-29T21:13:46.793Z,-3.30
2019-01-29T21:16:28.918Z,-3.30
2019-01-29T21:22:10.404Z,-3.20
2019-01-29T21:24:52.692Z,-3.20
2019-01-29T21:27:35.224Z,-3.20
2019-01-29T21:30:09.307Z,-3.10
2019-01-29T21:32:52.120Z,-3.10
2019-01-29T21:35:33.989Z,-3.10
2019-01-29T21:38:04.668Z,-3.10
2019-01-29T21:40:56.984Z,-3.10
2019-01-29T21:43:46.392Z,-3.00
2019-01-29T21:46:28.011Z,-2.70
2019-01-29T21:49:09.905Z,-2.60
2019-01-29T21:51:53.487Z,-2.50
2019-01-29T21:54:39.068Z,-2.50
2019-01-29T21:57:20.824Z,-2.30
2019-01-29T22:00:03.099Z,-2.30
2019-01-29T22:02:45.236Z,-2.30
2019-01-29T22:05:27.619Z,-2.10
2019-01-29T22:08:09.500Z,-2.10
2019-01-29T22:10:52.041Z,-2.10
2019-01-29T22:13:34.756Z,-2.20
2019-01-29T22:16:17.096Z,-2.10
2019-01-29T22:18:59.103Z,-2.10
2019-01-29T22:21:41.595Z,-2.00
2019-01-29T22:24:23.260Z,-2.00
2019-01-29T22:27:05.315Z,-2.00
2019-01-29T22:29:47.528Z,-2.10
2019-01-29T22:32:29.640Z,-1.90
2019-01-29T22:35:11.759Z,-2.00
2019-01-29T22:37:54.957Z,-2.00
2019-01-29T22:40:37.020Z,-1.90
2019-01-29T22:43:19.212Z,-2.00
2019-01-29T22:46:01.420Z,-1.80
2019-01-29T22:48:43.288Z,-1.90
2019-01-29T22:51:25.239Z,-1.90
2019-01-29T22:54:07.232Z,-1.80
2019-01-29T22:56:49.403Z,-1.80
2019-01-29T22:59:33.313Z,-1.70
2019-01-29T23:02:15.140Z,-1.60
2019-01-29T23:04:58.715Z,-1.40
2019-01-29T23:07:40.372Z,-1.30
2019-01-29T23:10:22.763Z,-1.50
2019-01-29T23:13:04.777Z,-1.40
2019-01-29T23:15:48.613Z,-1.30
2019-01-29T23:18:30.358Z,-1.20
2019-01-29T23:21:12.636Z,-1.30
2019-01-29T23:23:54.458Z,-1.30
2019-01-29T23:26:38.383Z,-1.20
2019-01-29T23:29:20.353Z,-1.30
2019-01-29T23:32:02.479Z,-1.40
2019-01-29T23:34:44.539Z,-1.50
2019-01-29T23:37:26.795Z,-1.50
2019-01-29T23:40:09.049Z,-1.50
2019-01-29T23:42:53.152Z,-1.40
2019-01-29T23:45:35.395Z,-1.40
2019-01-29T23:48:17.508Z,-1.40
2019-01-29T23:50:59.699Z,-1.40
2019-01-29T23:53:42.260Z,-1.40
2019-01-29T23:56:24.301Z,-1.30
2019-01-29T23:59:06.333Z,-1.20
